sensor_id;sensor_type;location;lat;lon;timestamp;temperature;humidity
14016;DHT22;7083;48.854;9.158;2022-09-12T00:00:17;11.50;99.90
14016;DHT22;7083;48.854;9.158;2022-09-12T00:02:45;11.50;99.90
14016;DHT22;7083;48.854;9.158;2022-09-12T00:05:13;11.60;99.90
14016;DHT22;7083;48.854;9.158;2022-09-12T00:07:39;11.20;99.90
14016;DHT22;7083;48.854;9.158;2022-09-12T00:10:07;11.50;99.90
14016;DHT22;7083;48.854;9.158;2022-09-12T00:12:33;11.50;99.90
14016;DHT22;7083;48.854;9.158;2022-09-12T00:15:00;11.50;99.90
14016;DHT22;7083;48.854;9.158;2022-09-12T00:17:27;11.40;99.90
14016;DHT22;7083;48.854;9.158;2022-09-12T00:19:54;11.40;99.90
14016;DHT22;7083;48.854;9.158;2022-09-12T00:22:22;11.40;99.90
14016;DHT22;7083;48.854;9.158;2022-09-12T00:24:49;11.20;99.90
14016;DHT22;7083;48.854;9.158;2022-09-12T00:27:16;11.30;99.90
14016;DHT22;7083;48.854;9.158;2022-09-12T00:29:42;11.50;99.90
14016;DHT22;7083;48.854;9.158;2022-09-12T00:32:09;11.30;99.90
14016;DHT22;7083;48.854;9.158;2022-09-12T00:34:36;11.20;99.90
14016;DHT22;7083;48.854;9.158;2022-09-12T00:37:03;11.20;99.90
14016;DHT22;7083;48.854;9.158;2022-09-12T00:39:31;11.30;99.90
14016;DHT22;7083;48.854;9.158;2022-09-12T00:41:58;13.20;99.90
14016;DHT22;7083;48.854;9.158;2022-09-12T00:44:46;11.30;99.90
14016;DHT22;7083;48.854;9.158;2022-09-12T00:47:17;11.40;99.90
14016;DHT22;7083;48.854;9.158;2022-09-12T00:49:47;11.30;99.90
14016;DHT22;7083;48.854;9.158;2022-09-12T00:52:17;11.30;99.90
14016;DHT22;7083;48.854;9.158;2022-09-12T00:54:49;11.30;99.90
14016;DHT22;7083;48.854;9.158;2022-09-12T00:57:20;11.30;99.90
14016;DHT22;7083;48.854;9.158;2022-09-12T00:59:51;11.30;99.90
14016;DHT22;7083;48.854;9.158;2022-09-12T01:02:18;10.90;99.90
14016;DHT22;7083;48.854;9.158;2022-09-12T01:04:46;11.40;99.90
14016;DHT22;7083;48.854;9.158;2022-09-12T01:07:13;11.30;99.90
14016;DHT22;7083;48.854;9.158;2022-09-12T01:09:41;11.30;99.90
14016;DHT22;7083;48.854;9.158;2022-09-12T01:12:11;11.70;99.90
14016;DHT22;7083;48.854;9.158;2022-09-12T01:14:39;11.30;99.90
14016;DHT22;7083;48.854;9.158;2022-09-12T01:17:06;12.50;99.90
14016;DHT22;7083;48.854;9.158;2022-09-12T01:20:10;11.20;99.90
14016;DHT22;7083;48.854;9.158;2022-09-12T01:23:00;11.30;99.90
14016;DHT22;7083;48.854;9.158;2022-09-12T01:25:30;11.30;99.90
14016;DHT22;7083;48.854;9.158;2022-09-12T01:28:22;11.20;99.90
14016;DHT22;7083;48.854;9.158;2022-09-12T01:31:00;11.20;99.90
14016;DHT22;7083;48.854;9.158;2022-09-12T01:33:38;11.20;99.90
14016;DHT22;7083;48.854;9.158;2022-09-12T01:36:36;11.20;99.90
14016;DHT22;7083;48.854;9.158;2022-09-12T01:39:09;11.20;99.90
14016;DHT22;7083;48.854;9.158;2022-09-12T01:41:50;11.10;99.90
14016;DHT22;7083;48.854;9.158;2022-09-12T01:44:25;11.10;99.90
14016;DHT22;7083;48.854;9.158;2022-09-12T01:47:01;11.20;99.90
14016;DHT22;7083;48.854;9.158;2022-09-12T01:49:32;11.20;99.90
14016;DHT22;7083;48.854;9.158;2022-09-12T01:52:07;11.20;99.90
14016;DHT22;7083;48.854;9.158;2022-09-12T01:54:40;11.10;99.90
14016;DHT22;7083;48.854;9.158;2022-09-12T01:57:11;10.60;99.90
14016;DHT22;7083;48.854;9.158;2022-09-12T01:59:43;11.10;99.90
14016;DHT22;7083;48.854;9.158;2022-09-12T02:02:14;11.00;99.90
14016;DHT22;7083;48.854;9.158;2022-09-12T02:04:46;11.00;99.90
14016;DHT22;7083;48.854;9.158;2022-09-12T02:07:19;11.00;99.90
14016;DHT22;7083;48.854;9.158;2022-09-12T02:09:53;11.00;99.90
14016;DHT22;7083;48.854;9.158;2022-09-12T02:12:28;11.00;99.90
14016;DHT22;7083;48.854;9.158;2022-09-12T02:14:59;10.90;99.90
14016;DHT22;7083;48.854;9.158;2022-09-12T02:17:29;11.00;99.90
14016;DHT22;7083;48.854;9.158;2022-09-12T02:19:59;11.00;99.90
14016;DHT22;7083;48.854;9.158;2022-09-12T02:22:29;11.00;99.90
14016;DHT22;7083;48.854;9.158;2022-09-12T02:24:59;11.00;99.90
14016;DHT22;7083;48.854;9.158;2022-09-12T02:27:29;11.00;99.90
14016;DHT22;7083;48.854;9.158;2022-09-12T02:29:58;11.00;99.90
14016;DHT22;7083;48.854;9.158;2022-09-12T02:32:30;10.90;99.90
14016;DHT22;7083;48.854;9.158;2022-09-12T02:35:03;10.90;99.90
14016;DHT22;7083;48.854;9.158;2022-09-12T02:37:43;10.90;99.90
14016;DHT22;7083;48.854;9.158;2022-09-12T02:40:12;10.90;99.90
14016;DHT22;7083;48.854;9.158;2022-09-12T02:42:39;10.80;99.90
14016;DHT22;7083;48.854;9.158;2022-09-12T02:45:07;10.80;99.90
14016;DHT22;7083;48.854;9.158;2022-09-12T02:47:40;10.80;99.90
14016;DHT22;7083;48.854;9.158;2022-09-12T02:50:08;10.80;99.90
14016;DHT22;7083;48.854;9.158;2022-09-12T02:52:35;11.90;99.90
14016;DHT22;7083;48.854;9.158;2022-09-12T02:55:04;10.80;99.90
14016;DHT22;7083;48.854;9.158;2022-09-12T02:57:32;10.80;99.90
14016;DHT22;7083;48.854;9.158;2022-09-12T03:00:00;10.80;99.90
14016;DHT22;7083;48.854;9.158;2022-09-12T03:02:39;10.80;99.90
14016;DHT22;7083;48.854;9.158;2022-09-12T03:05:23;10.80;99.90
14016;DHT22;7083;48.854;9.158;2022-09-12T03:08:13;10.80;99.90
14016;DHT22;7083;48.854;9.158;2022-09-12T03:11:08;10.80;99.90
14016;DHT22;7083;48.854;9.158;2022-09-12T03:13:48;10.70;99.90
14016;DHT22;7083;48.854;9.158;2022-09-12T03:16:22;10.70;99.90
14016;DHT22;7083;48.854;9.158;2022-09-12T03:18:59;10.60;99.90
14016;DHT22;7083;48.854;9.158;2022-09-12T03:21:32;10.50;99.90
14016;DHT22;7083;48.854;9.158;2022-09-12T03:24:11;10.60;99.90
14016;DHT22;7083;48.854;9.158;2022-09-12T03:26:42;10.50;99.90
14016;DHT22;7083;48.854;9.158;2022-09-12T03:29:11;10.70;99.90
14016;DHT22;7083;48.854;9.158;2022-09-12T03:31:48;9.40;99.90
14016;DHT22;7083;48.854;9.158;2022-09-12T03:34:16;10.60;99.90
14016;DHT22;7083;48.854;9.158;2022-09-12T03:36:43;10.60;99.90
14016;DHT22;7083;48.854;9.158;2022-09-12T03:39:10;10.50;99.90
14016;DHT22;7083;48.854;9.158;2022-09-12T03:41:36;10.50;99.90
14016;DHT22;7083;48.854;9.158;2022-09-12T03:44:03;10.40;99.90
14016;DHT22;7083;48.854;9.158;2022-09-12T03:46:30;10.40;99.90
14016;DHT22;7083;48.854;9.158;2022-09-12T03:48:56;10.30;99.90
14016;DHT22;7083;48.854;9.158;2022-09-12T03:51:24;11.00;99.90
14016;DHT22;7083;48.854;9.158;2022-09-12T03:53:51;10.40;99.90
14016;DHT22;7083;48.854;9.158;2022-09-12T03:56:18;10.30;99.90
14016;DHT22;7083;48.854;9.158;2022-09-12T03:58:45;10.30;99.90
14016;DHT22;7083;48.854;9.158;2022-09-12T04:01:14;10.40;99.90
14016;DHT22;7083;48.854;9.158;2022-09-12T04:03:43;10.20;99.90
14016;DHT22;7083;48.854;9.158;2022-09-12T04:06:11;10.30;99.90
14016;DHT22;7083;48.854;9.158;2022-09-12T04:08:41;10.30;99.90
14016;DHT22;7083;48.854;9.158;2022-09-12T04:11:11;10.20;99.90
14016;DHT22;7083;48.854;9.158;2022-09-12T04:13:39;10.20;99.90
14016;DHT22;7083;48.854;9.158;2022-09-12T04:16:06;10.20;99.90
14016;DHT22;7083;48.854;9.158;2022-09-12T04:18:38;10.30;99.90
14016;DHT22;7083;48.854;9.158;2022-09-12T04:21:05;10.20;99.90
14016;DHT22;7083;48.854;9.158;2022-09-12T04:23:33;10.20;99.90
14016;DHT22;7083;48.854;9.158;2022-09-12T04:26:02;10.20;99.90
14016;DHT22;7083;48.854;9.158;2022-09-12T04:28:31;10.10;99.90
14016;DHT22;7083;48.854;9.158;2022-09-12T04:31:00;10.20;99.90
14016;DHT22;7083;48.854;9.158;2022-09-12T04:33:28;10.10;99.90
14016;DHT22;7083;48.854;9.158;2022-09-12T04:35:54;10.10;99.90
14016;DHT22;7083;48.854;9.158;2022-09-12T04:38:21;10.10;99.90
14016;DHT22;7083;48.854;9.158;2022-09-12T04:40:49;10.10;99.90
14016;DHT22;7083;48.854;9.158;2022-09-12T04:43:17;10.10;99.90
14016;DHT22;7083;48.854;9.158;2022-09-12T04:48:21;10.10;99.90
14016;DHT22;7083;48.854;9.158;2022-09-12T04:50:48;10.30;99.90
14016;DHT22;7083;48.854;9.158;2022-09-12T04:53:15;10.10;99.90
14016;DHT22;7083;48.854;9.158;2022-09-12T04:55:41;10.10;99.90
14016;DHT22;7083;48.854;9.158;2022-09-12T05:01:38;10.80;99.90
14016;DHT22;7083;48.854;9.158;2022-09-12T05:04:05;10.00;99.90
14016;DHT22;7083;48.854;9.158;2022-09-12T05:06:34;10.10;99.90
14016;DHT22;7083;48.854;9.158;2022-09-12T05:09:01;10.00;99.90
14016;DHT22;7083;48.854;9.158;2022-09-12T05:11:31;10.00;99.90
14016;DHT22;7083;48.854;9.158;2022-09-12T05:13:58;10.10;99.90
14016;DHT22;7083;48.854;9.158;2022-09-12T05:16:26;10.00;99.90
14016;DHT22;7083;48.854;9.158;2022-09-12T05:18:55;10.10;99.90
14016;DHT22;7083;48.854;9.158;2022-09-12T05:21:23;10.10;99.90
14016;DHT22;7083;48.854;9.158;2022-09-12T05:23:50;10.10;99.90
14016;DHT22;7083;48.854;9.158;2022-09-12T05:26:17;10.10;99.90
14016;DHT22;7083;48.854;9.158;2022-09-12T05:28:46;10.10;99.90
14016;DHT22;7083;48.854;9.158;2022-09-12T05:31:15;10.10;99.90
14016;DHT22;7083;48.854;9.158;2022-09-12T05:33:43;10.20;99.90
14016;DHT22;7083;48.854;9.158;2022-09-12T05:36:13;10.20;99.90
14016;DHT22;7083;48.854;9.158;2022-09-12T05:38:40;10.30;99.90
14016;DHT22;7083;48.854;9.158;2022-09-12T05:41:09;10.30;99.90
14016;DHT22;7083;48.854;9.158;2022-09-12T05:43:37;10.30;99.90
14016;DHT22;7083;48.854;9.158;2022-09-12T05:46:06;10.40;99.90
14016;DHT22;7083;48.854;9.158;2022-09-12T05:48:33;10.40;99.90
14016;DHT22;7083;48.854;9.158;2022-09-12T05:51:02;10.40;99.90
14016;DHT22;7083;48.854;9.158;2022-09-12T05:53:33;10.60;99.90
14016;DHT22;7083;48.854;9.158;2022-09-12T05:56:07;10.60;99.90
14016;DHT22;7083;48.854;9.158;2022-09-12T05:58:35;10.70;99.90
14016;DHT22;7083;48.854;9.158;2022-09-12T06:01:06;10.80;99.90
14016;DHT22;7083;48.854;9.158;2022-09-12T06:03:36;10.80;99.90
14016;DHT22;7083;48.854;9.158;2022-09-12T06:06:06;10.90;99.90
14016;DHT22;7083;48.854;9.158;2022-09-12T06:08:34;11.00;99.90
14016;DHT22;7083;48.854;9.158;2022-09-12T06:11:03;11.10;99.90
14016;DHT22;7083;48.854;9.158;2022-09-12T06:13:30;11.10;99.90
14016;DHT22;7083;48.854;9.158;2022-09-12T06:16:02;11.20;99.90
14016;DHT22;7083;48.854;9.158;2022-09-12T06:18:29;11.30;99.90
14016;DHT22;7083;48.854;9.158;2022-09-12T06:20:56;11.30;99.90
14016;DHT22;7083;48.854;9.158;2022-09-12T06:23:23;11.40;99.90
14016;DHT22;7083;48.854;9.158;2022-09-12T06:25:52;11.50;99.90
14016;DHT22;7083;48.854;9.158;2022-09-12T06:28:19;11.60;99.90
14016;DHT22;7083;48.854;9.158;2022-09-12T06:30:46;11.70;99.90
14016;DHT22;7083;48.854;9.158;2022-09-12T06:33:13;11.80;99.90
14016;DHT22;7083;48.854;9.158;2022-09-12T06:35:40;11.90;99.90
14016;DHT22;7083;48.854;9.158;2022-09-12T06:38:07;12.00;99.90
14016;DHT22;7083;48.854;9.158;2022-09-12T06:40:37;12.00;99.90
14016;DHT22;7083;48.854;9.158;2022-09-12T06:43:08;12.10;99.90
14016;DHT22;7083;48.854;9.158;2022-09-12T06:45:35;12.10;99.90
14016;DHT22;7083;48.854;9.158;2022-09-12T06:48:01;12.20;99.90
14016;DHT22;7083;48.854;9.158;2022-09-12T06:50:29;12.30;99.90
14016;DHT22;7083;48.854;9.158;2022-09-12T06:52:55;12.30;99.90
14016;DHT22;7083;48.854;9.158;2022-09-12T06:55:22;12.30;99.90
14016;DHT22;7083;48.854;9.158;2022-09-12T06:57:49;12.40;99.90
14016;DHT22;7083;48.854;9.158;2022-09-12T07:00:18;12.50;99.90
14016;DHT22;7083;48.854;9.158;2022-09-12T07:02:44;12.50;99.90
14016;DHT22;7083;48.854;9.158;2022-09-12T07:05:11;12.60;99.90
14016;DHT22;7083;48.854;9.158;2022-09-12T07:07:39;12.70;99.90
14016;DHT22;7083;48.854;9.158;2022-09-12T07:10:06;12.80;99.90
14016;DHT22;7083;48.854;9.158;2022-09-12T07:12:36;12.90;99.90
14016;DHT22;7083;48.854;9.158;2022-09-12T07:15:03;13.00;99.90
14016;DHT22;7083;48.854;9.158;2022-09-12T07:17:31;13.00;99.90
14016;DHT22;7083;48.854;9.158;2022-09-12T07:19:58;13.10;99.90
14016;DHT22;7083;48.854;9.158;2022-09-12T07:22:24;13.20;99.90
14016;DHT22;7083;48.854;9.158;2022-09-12T07:24:51;13.20;99.90
14016;DHT22;7083;48.854;9.158;2022-09-12T07:27:20;13.30;99.90
14016;DHT22;7083;48.854;9.158;2022-09-12T07:29:46;13.30;99.90
14016;DHT22;7083;48.854;9.158;2022-09-12T07:32:13;13.40;99.90
14016;DHT22;7083;48.854;9.158;2022-09-12T07:34:41;13.50;99.90
14016;DHT22;7083;48.854;9.158;2022-09-12T07:37:08;13.50;99.90
14016;DHT22;7083;48.854;9.158;2022-09-12T07:39:34;13.70;99.90
14016;DHT22;7083;48.854;9.158;2022-09-12T07:42:02;13.70;99.90
14016;DHT22;7083;48.854;9.158;2022-09-12T07:44:29;13.80;99.90
14016;DHT22;7083;48.854;9.158;2022-09-12T07:46:55;14.60;99.90
14016;DHT22;7083;48.854;9.158;2022-09-12T07:49:22;13.90;99.90
14016;DHT22;7083;48.854;9.158;2022-09-12T07:51:50;14.00;99.90
14016;DHT22;7083;48.854;9.158;2022-09-12T07:54:17;14.10;99.90
14016;DHT22;7083;48.854;9.158;2022-09-12T07:56:44;14.20;99.90
14016;DHT22;7083;48.854;9.158;2022-09-12T07:59:11;14.30;99.90
14016;DHT22;7083;48.854;9.158;2022-09-12T08:01:38;14.40;99.90
14016;DHT22;7083;48.854;9.158;2022-09-12T08:04:06;14.40;99.90
14016;DHT22;7083;48.854;9.158;2022-09-12T08:06:33;14.50;99.90
14016;DHT22;7083;48.854;9.158;2022-09-12T08:09:03;14.60;99.90
14016;DHT22;7083;48.854;9.158;2022-09-12T08:11:32;14.70;99.90
14016;DHT22;7083;48.854;9.158;2022-09-12T08:13:59;14.80;99.90
14016;DHT22;7083;48.854;9.158;2022-09-12T08:16:28;14.90;99.90
14016;DHT22;7083;48.854;9.158;2022-09-12T08:18:56;15.00;99.90
14016;DHT22;7083;48.854;9.158;2022-09-12T08:21:26;15.10;99.90
14016;DHT22;7083;48.854;9.158;2022-09-12T08:23:54;15.20;99.90
14016;DHT22;7083;48.854;9.158;2022-09-12T08:26:23;15.30;99.90
14016;DHT22;7083;48.854;9.158;2022-09-12T08:28:50;15.40;99.90
14016;DHT22;7083;48.854;9.158;2022-09-12T08:31:19;15.40;99.90
14016;DHT22;7083;48.854;9.158;2022-09-12T08:33:46;15.50;99.90
14016;DHT22;7083;48.854;9.158;2022-09-12T08:36:15;15.60;99.90
14016;DHT22;7083;48.854;9.158;2022-09-12T08:38:43;14.60;99.90
14016;DHT22;7083;48.854;9.158;2022-09-12T08:41:17;17.50;99.90
14016;DHT22;7083;48.854;9.158;2022-09-12T08:43:58;15.90;99.90
14016;DHT22;7083;48.854;9.158;2022-09-12T08:46:31;16.00;99.90
14016;DHT22;7083;48.854;9.158;2022-09-12T08:49:00;16.10;99.90
14016;DHT22;7083;48.854;9.158;2022-09-12T08:51:31;16.20;99.90
14016;DHT22;7083;48.854;9.158;2022-09-12T08:54:00;16.30;99.90
14016;DHT22;7083;48.854;9.158;2022-09-12T08:56:31;16.30;99.90
14016;DHT22;7083;48.854;9.158;2022-09-12T08:59:01;16.50;99.90
14016;DHT22;7083;48.854;9.158;2022-09-12T09:01:31;16.50;99.90
14016;DHT22;7083;48.854;9.158;2022-09-12T09:04:21;16.60;99.90
14016;DHT22;7083;48.854;9.158;2022-09-12T09:07:02;16.70;99.90
14016;DHT22;7083;48.854;9.158;2022-09-12T09:09:41;16.80;99.90
14016;DHT22;7083;48.854;9.158;2022-09-12T09:12:14;16.90;99.90
14016;DHT22;7083;48.854;9.158;2022-09-12T09:14:55;16.90;99.90
14016;DHT22;7083;48.854;9.158;2022-09-12T09:17:29;17.00;99.90
14016;DHT22;7083;48.854;9.158;2022-09-12T09:20:02;17.10;99.90
14016;DHT22;7083;48.854;9.158;2022-09-12T09:22:38;17.20;99.90
14016;DHT22;7083;48.854;9.158;2022-09-12T09:25:12;17.30;99.90
14016;DHT22;7083;48.854;9.158;2022-09-12T09:27:43;17.30;99.90
14016;DHT22;7083;48.854;9.158;2022-09-12T09:30:15;17.40;99.90
14016;DHT22;7083;48.854;9.158;2022-09-12T09:32:44;17.60;99.90
14016;DHT22;7083;48.854;9.158;2022-09-12T09:35:16;17.70;99.90
14016;DHT22;7083;48.854;9.158;2022-09-12T09:37:46;17.80;99.90
14016;DHT22;7083;48.854;9.158;2022-09-12T09:40:22;17.90;99.90
14016;DHT22;7083;48.854;9.158;2022-09-12T09:42:54;18.00;99.90
14016;DHT22;7083;48.854;9.158;2022-09-12T09:45:24;18.80;99.90
14016;DHT22;7083;48.854;9.158;2022-09-12T09:47:56;18.10;99.90
14016;DHT22;7083;48.854;9.158;2022-09-12T09:50:24;18.20;99.90
14016;DHT22;7083;48.854;9.158;2022-09-12T09:52:51;18.30;99.90
14016;DHT22;7083;48.854;9.158;2022-09-12T09:55:22;18.40;99.90
14016;DHT22;7083;48.854;9.158;2022-09-12T09:57:50;18.40;99.90
14016;DHT22;7083;48.854;9.158;2022-09-12T10:00:28;18.60;99.90
14016;DHT22;7083;48.854;9.158;2022-09-12T10:03:23;18.70;99.90
14016;DHT22;7083;48.854;9.158;2022-09-12T10:05:52;18.80;99.90
14016;DHT22;7083;48.854;9.158;2022-09-12T10:08:22;18.90;99.90
14016;DHT22;7083;48.854;9.158;2022-09-12T10:10:57;19.10;99.90
14016;DHT22;7083;48.854;9.158;2022-09-12T10:13:32;19.00;99.90
14016;DHT22;7083;48.854;9.158;2022-09-12T10:16:03;19.10;99.90
14016;DHT22;7083;48.854;9.158;2022-09-12T10:18:39;19.20;99.90
14016;DHT22;7083;48.854;9.158;2022-09-12T10:21:20;19.20;99.90
14016;DHT22;7083;48.854;9.158;2022-09-12T10:23:57;19.30;99.90
14016;DHT22;7083;48.854;9.158;2022-09-12T10:26:25;19.50;99.90
14016;DHT22;7083;48.854;9.158;2022-09-12T10:28:57;19.60;99.90
14016;DHT22;7083;48.854;9.158;2022-09-12T10:31:28;19.70;99.90
14016;DHT22;7083;48.854;9.158;2022-09-12T10:33:59;19.70;99.90
14016;DHT22;7083;48.854;9.158;2022-09-12T10:36:34;19.80;99.90
14016;DHT22;7083;48.854;9.158;2022-09-12T10:39:02;19.80;99.90
14016;DHT22;7083;48.854;9.158;2022-09-12T10:41:35;20.00;99.90
14016;DHT22;7083;48.854;9.158;2022-09-12T10:44:06;19.90;99.90
14016;DHT22;7083;48.854;9.158;2022-09-12T10:46:35;20.10;99.90
14016;DHT22;7083;48.854;9.158;2022-09-12T10:49:16;20.10;99.90
14016;DHT22;7083;48.854;9.158;2022-09-12T10:51:44;20.20;99.90
14016;DHT22;7083;48.854;9.158;2022-09-12T10:54:11;20.20;99.90
14016;DHT22;7083;48.854;9.158;2022-09-12T10:56:42;20.30;99.90
14016;DHT22;7083;48.854;9.158;2022-09-12T10:59:21;20.40;99.90
14016;DHT22;7083;48.854;9.158;2022-09-12T11:01:54;20.40;99.90
14016;DHT22;7083;48.854;9.158;2022-09-12T11:04:28;20.40;99.90
14016;DHT22;7083;48.854;9.158;2022-09-12T11:07:09;20.30;99.90
14016;DHT22;7083;48.854;9.158;2022-09-12T11:09:46;20.50;99.90
14016;DHT22;7083;48.854;9.158;2022-09-12T11:12:18;20.70;99.90
14016;DHT22;7083;48.854;9.158;2022-09-12T11:14:55;20.80;99.90
14016;DHT22;7083;48.854;9.158;2022-09-12T11:17:34;20.90;99.90
14016;DHT22;7083;48.854;9.158;2022-09-12T11:20:37;21.00;99.90
14016;DHT22;7083;48.854;9.158;2022-09-12T11:23:45;21.00;99.40
14016;DHT22;7083;48.854;9.158;2022-09-12T11:26:23;21.00;99.90
14016;DHT22;7083;48.854;9.158;2022-09-12T11:29:02;21.10;99.90
14016;DHT22;7083;48.854;9.158;2022-09-12T11:31:52;21.10;99.90
14016;DHT22;7083;48.854;9.158;2022-09-12T11:34:28;21.30;99.90
14016;DHT22;7083;48.854;9.158;2022-09-12T11:37:11;21.40;96.70
14016;DHT22;7083;48.854;9.158;2022-09-12T11:39:39;21.40;98.90
14016;DHT22;7083;48.854;9.158;2022-09-12T11:42:15;21.30;96.50
14016;DHT22;7083;48.854;9.158;2022-09-12T11:44:46;21.50;91.10
14016;DHT22;7083;48.854;9.158;2022-09-12T11:47:14;21.80;87.00
14016;DHT22;7083;48.854;9.158;2022-09-12T11:49:46;21.90;84.60
14016;DHT22;7083;48.854;9.158;2022-09-12T11:52:15;22.10;78.70
14016;DHT22;7083;48.854;9.158;2022-09-12T11:54:47;22.10;84.10
14016;DHT22;7083;48.854;9.158;2022-09-12T11:57:18;22.00;86.60
14016;DHT22;7083;48.854;9.158;2022-09-12T11:59:50;22.10;84.20
14016;DHT22;7083;48.854;9.158;2022-09-12T12:02:24;22.10;84.20
14016;DHT22;7083;48.854;9.158;2022-09-12T12:05:15;22.00;80.40
14016;DHT22;7083;48.854;9.158;2022-09-12T12:07:51;22.00;79.80
14016;DHT22;7083;48.854;9.158;2022-09-12T12:10:24;22.00;78.60
14016;DHT22;7083;48.854;9.158;2022-09-12T12:13:09;22.10;76.90
14016;DHT22;7083;48.854;9.158;2022-09-12T12:15:44;22.60;76.00
14016;DHT22;7083;48.854;9.158;2022-09-12T12:18:17;22.40;74.30
14016;DHT22;7083;48.854;9.158;2022-09-12T12:20:45;22.60;73.40
14016;DHT22;7083;48.854;9.158;2022-09-12T12:23:26;22.80;77.00
14016;DHT22;7083;48.854;9.158;2022-09-12T12:25:55;23.10;78.70
14016;DHT22;7083;48.854;9.158;2022-09-12T12:28:54;23.20;68.20
14016;DHT22;7083;48.854;9.158;2022-09-12T12:31:23;23.20;71.00
14016;DHT22;7083;48.854;9.158;2022-09-12T12:34:00;23.10;67.60
14016;DHT22;7083;48.854;9.158;2022-09-12T12:36:34;23.10;69.00
14016;DHT22;7083;48.854;9.158;2022-09-12T12:42:55;23.40;68.60
14016;DHT22;7083;48.854;9.158;2022-09-12T12:46:05;23.60;67.20
14016;DHT22;7083;48.854;9.158;2022-09-12T12:48:55;23.80;69.00
14016;DHT22;7083;48.854;9.158;2022-09-12T12:51:57;23.80;66.10
14016;DHT22;7083;48.854;9.158;2022-09-12T12:54:46;23.80;66.00
14016;DHT22;7083;48.854;9.158;2022-09-12T12:57:22;23.80;64.70
14016;DHT22;7083;48.854;9.158;2022-09-12T12:59:53;24.20;63.50
14016;DHT22;7083;48.854;9.158;2022-09-12T13:02:24;24.10;64.90
14016;DHT22;7083;48.854;9.158;2022-09-12T13:04:52;24.20;64.70
14016;DHT22;7083;48.854;9.158;2022-09-12T13:07:26;24.30;65.40
14016;DHT22;7083;48.854;9.158;2022-09-12T13:09:56;24.40;65.40
14016;DHT22;7083;48.854;9.158;2022-09-12T13:12:28;24.40;62.80
14016;DHT22;7083;48.854;9.158;2022-09-12T13:14:57;24.60;62.60
14016;DHT22;7083;48.854;9.158;2022-09-12T13:17:33;24.60;65.60
14016;DHT22;7083;48.854;9.158;2022-09-12T13:20:05;24.80;63.70
14016;DHT22;7083;48.854;9.158;2022-09-12T13:22:42;25.00;63.60
14016;DHT22;7083;48.854;9.158;2022-09-12T13:25:26;25.20;63.90
14016;DHT22;7083;48.854;9.158;2022-09-12T13:28:01;25.50;62.00
14016;DHT22;7083;48.854;9.158;2022-09-12T13:30:30;25.60;58.80
14016;DHT22;7083;48.854;9.158;2022-09-12T13:33:16;25.90;61.10
14016;DHT22;7083;48.854;9.158;2022-09-12T13:38:52;28.60;57.40
14016;DHT22;7083;48.854;9.158;2022-09-12T13:41:37;29.60;52.90
14016;DHT22;7083;48.854;9.158;2022-09-12T13:44:08;29.90;51.70
14016;DHT22;7083;48.854;9.158;2022-09-12T13:46:35;30.90;51.20
14016;DHT22;7083;48.854;9.158;2022-09-12T13:49:08;31.90;49.20
14016;DHT22;7083;48.854;9.158;2022-09-12T13:51:36;32.90;45.70
14016;DHT22;7083;48.854;9.158;2022-09-12T13:54:07;32.80;47.50
14016;DHT22;7083;48.854;9.158;2022-09-12T13:56:46;32.10;49.40
14016;DHT22;7083;48.854;9.158;2022-09-12T13:59:13;31.20;50.80
14016;DHT22;7083;48.854;9.158;2022-09-12T14:01:42;32.50;50.80
14016;DHT22;7083;48.854;9.158;2022-09-12T14:04:17;30.70;50.90
14016;DHT22;7083;48.854;9.158;2022-09-12T14:07:10;30.50;52.00
14016;DHT22;7083;48.854;9.158;2022-09-12T14:09:40;31.40;51.40
14016;DHT22;7083;48.854;9.158;2022-09-12T14:12:23;32.90;54.40
14016;DHT22;7083;48.854;9.158;2022-09-12T14:14:51;33.60;56.00
14016;DHT22;7083;48.854;9.158;2022-09-12T14:17:23;33.50;54.60
14016;DHT22;7083;48.854;9.158;2022-09-12T14:19:51;33.20;60.20
14016;DHT22;7083;48.854;9.158;2022-09-12T14:22:18;32.10;60.40
14016;DHT22;7083;48.854;9.158;2022-09-12T14:24:47;31.60;64.00
14016;DHT22;7083;48.854;9.158;2022-09-12T14:27:16;31.50;64.60
14016;DHT22;7083;48.854;9.158;2022-09-12T14:29:44;32.50;65.60
14016;DHT22;7083;48.854;9.158;2022-09-12T14:32:20;33.80;60.60
14016;DHT22;7083;48.854;9.158;2022-09-12T14:35:03;35.00;62.70
14016;DHT22;7083;48.854;9.158;2022-09-12T14:37:30;36.40;45.20
14016;DHT22;7083;48.854;9.158;2022-09-12T14:39:58;37.00;39.00
14016;DHT22;7083;48.854;9.158;2022-09-12T14:44:57;37.60;41.60
14016;DHT22;7083;48.854;9.158;2022-09-12T14:47:27;38.40;38.70
14016;DHT22;7083;48.854;9.158;2022-09-12T14:54:57;39.00;37.50
14016;DHT22;7083;48.854;9.158;2022-09-12T15:05:21;40.30;36.40
14016;DHT22;7083;48.854;9.158;2022-09-12T15:07:56;40.90;35.90
14016;DHT22;7083;48.854;9.158;2022-09-12T15:10:29;41.20;33.90
14016;DHT22;7083;48.854;9.158;2022-09-12T15:13:17;40.90;35.80
14016;DHT22;7083;48.854;9.158;2022-09-12T15:15:47;40.90;35.70
14016;DHT22;7083;48.854;9.158;2022-09-12T15:18:14;41.10;37.90
14016;DHT22;7083;48.854;9.158;2022-09-12T15:20:42;40.90;34.40
14016;DHT22;7083;48.854;9.158;2022-09-12T15:23:15;40.30;38.20
14016;DHT22;7083;48.854;9.158;2022-09-12T15:25:44;40.30;35.50
14016;DHT22;7083;48.854;9.158;2022-09-12T15:28:18;40.30;39.30
14016;DHT22;7083;48.854;9.158;2022-09-12T15:30:46;40.10;36.40
14016;DHT22;7083;48.854;9.158;2022-09-12T15:33:15;39.90;38.90
14016;DHT22;7083;48.854;9.158;2022-09-12T15:35:42;39.60;36.80
14016;DHT22;7083;48.854;9.158;2022-09-12T15:38:09;38.90;39.90
14016;DHT22;7083;48.854;9.158;2022-09-12T15:40:36;38.90;41.10
14016;DHT22;7083;48.854;9.158;2022-09-12T15:43:05;39.20;39.20
14016;DHT22;7083;48.854;9.158;2022-09-12T15:45:33;39.40;37.00
14016;DHT22;7083;48.854;9.158;2022-09-12T15:48:00;39.40;39.00
14016;DHT22;7083;48.854;9.158;2022-09-12T15:50:28;39.80;37.00
14016;DHT22;7083;48.854;9.158;2022-09-12T15:52:55;39.20;36.70
14016;DHT22;7083;48.854;9.158;2022-09-12T15:55:23;38.90;37.70
14016;DHT22;7083;48.854;9.158;2022-09-12T15:57:50;38.40;38.20
14016;DHT22;7083;48.854;9.158;2022-09-12T16:00:18;37.90;37.00
14016;DHT22;7083;48.854;9.158;2022-09-12T16:02:49;37.10;40.00
14016;DHT22;7083;48.854;9.158;2022-09-12T16:05:18;35.70;41.00
14016;DHT22;7083;48.854;9.158;2022-09-12T16:07:45;34.10;41.80
14016;DHT22;7083;48.854;9.158;2022-09-12T16:10:14;32.50;45.30
14016;DHT22;7083;48.854;9.158;2022-09-12T16:15:12;31.10;46.80
14016;DHT22;7083;48.854;9.158;2022-09-12T16:17:40;29.00;50.60
14016;DHT22;7083;48.854;9.158;2022-09-12T16:20:08;28.10;52.80
14016;DHT22;7083;48.854;9.158;2022-09-12T16:22:35;27.40;54.30
14016;DHT22;7083;48.854;9.158;2022-09-12T16:25:02;26.40;55.90
14016;DHT22;7083;48.854;9.158;2022-09-12T16:27:29;26.30;55.70
14016;DHT22;7083;48.854;9.158;2022-09-12T16:29:56;25.70;58.60
14016;DHT22;7083;48.854;9.158;2022-09-12T16:32:23;25.30;59.30
14016;DHT22;7083;48.854;9.158;2022-09-12T16:42:13;25.00;63.60
14016;DHT22;7083;48.854;9.158;2022-09-12T16:44:40;23.90;64.60
14016;DHT22;7083;48.854;9.158;2022-09-12T16:47:07;23.60;63.50
14016;DHT22;7083;48.854;9.158;2022-09-12T16:52:03;23.40;64.80